createdAt,value
2023-12-13T00:02:29.040Z,95024.97
2023-12-13T00:05:32.849Z,95025.44
2023-12-13T00:08:37.752Z,95039.22
2023-12-13T00:11:41.412Z,95046.44
2023-12-13T00:14:44.976Z,95042.16
2023-12-13T00:17:49.685Z,95050.75
2023-12-13T00:20:54.242Z,95053.22
2023-12-13T00:23:58.171Z,95064.88
2023-12-13T00:27:02.679Z,95063.31
2023-12-13T00:30:08.740Z,95061.03
2023-12-13T00:33:13.940Z,95069.69
2023-12-13T00:36:17.972Z,95068.06
2023-12-13T00:39:22.124Z,95067.13
2023-12-13T00:42:26.228Z,95072.72
2023-12-13T00:45:31.288Z,95078.56
2023-12-13T00:48:35.932Z,95079.06
2023-12-13T00:51:39.774Z,95088.50
2023-12-13T00:54:43.530Z,95087.75
2023-12-13T00:57:47.497Z,95087.34
2023-12-13T01:00:51.582Z,95099.63
2023-12-13T01:03:55.801Z,95104.72
2023-12-13T01:06:59.465Z,95102.09
2023-12-13T01:10:03.667Z,95117.28
2023-12-13T01:13:07.611Z,95129.78
2023-12-13T01:16:12.296Z,95121.69
2023-12-13T01:19:16.317Z,95123.03
2023-12-13T01:22:22.554Z,95130.97
2023-12-13T01:25:26.155Z,95129.75
2023-12-13T01:28:29.879Z,95126.78
2023-12-13T01:31:33.489Z,95130.66
2023-12-13T01:34:37.601Z,95122.81
2023-12-13T01:37:42.477Z,95128.41
2023-12-13T01:41:10.971Z,95129.13
2023-12-13T01:44:17.006Z,95138.44
2023-12-13T01:47:21.019Z,95135.44
2023-12-13T01:50:26.700Z,95141.25
2023-12-13T01:53:32.767Z,95146.84
2023-12-13T01:56:41.356Z,95156.91
2023-12-13T01:59:45.290Z,95163.44
2023-12-13T02:02:49.947Z,95157.00
2023-12-13T02:05:55.104Z,95168.88
2023-12-13T02:09:00.504Z,95167.81
2023-12-13T02:12:04.685Z,95167.34
2023-12-13T02:15:09.500Z,95163.19
2023-12-13T02:18:18.760Z,95179.63
2023-12-13T02:21:22.387Z,95169.00
2023-12-13T02:24:30.254Z,95170.16
2023-12-13T02:27:35.450Z,95177.31
2023-12-13T02:30:40.075Z,95177.31
2023-12-13T02:33:43.730Z,95183.38
2023-12-13T02:36:47.574Z,95189.25
2023-12-13T02:39:51.295Z,95187.97
2023-12-13T02:42:58.200Z,95187.59
2023-12-13T02:46:01.675Z,95184.94
2023-12-13T02:49:11.453Z,95175.50
2023-12-13T02:52:18.527Z,95184.22
2023-12-13T02:55:23.089Z,95181.63
2023-12-13T02:58:27.200Z,95187.84
2023-12-13T03:01:31.849Z,95190.66
2023-12-13T03:04:36.610Z,95177.03
2023-12-13T03:07:42.016Z,95191.00
2023-12-13T03:10:45.773Z,95192.66
2023-12-13T03:13:49.753Z,95182.84
2023-12-13T03:16:55.192Z,95203.38
2023-12-13T03:20:00.020Z,95192.69
2023-12-13T03:23:09.049Z,95187.69
2023-12-13T03:26:12.450Z,95187.44
2023-12-13T03:29:17.186Z,95185.69
2023-12-13T03:32:21.149Z,95180.91
2023-12-13T03:35:24.933Z,95193.34
2023-12-13T03:38:28.480Z,95201.44
2023-12-13T03:41:33.208Z,95193.38
2023-12-13T03:44:37.240Z,95189.94
2023-12-13T03:47:41.168Z,95195.00
2023-12-13T03:50:45.153Z,95193.38
2023-12-13T03:53:49.522Z,95185.34
2023-12-13T03:56:54.210Z,95182.72
2023-12-13T03:59:58.006Z,95192.94
2023-12-13T04:03:01.715Z,95193.78
2023-12-13T04:06:07.349Z,95199.38
2023-12-13T04:09:12.431Z,95185.47
2023-12-13T04:12:16.450Z,95193.81
2023-12-13T04:15:20.074Z,95196.34
2023-12-13T04:18:23.832Z,95191.34
2023-12-13T04:21:28.164Z,95188.97
2023-12-13T04:24:31.942Z,95193.31
2023-12-13T04:27:36.076Z,95184.69
2023-12-13T04:30:41.149Z,95185.09
2023-12-13T04:33:45.299Z,95180.81
2023-12-13T04:36:48.936Z,95179.16
2023-12-13T04:39:52.956Z,95171.81
2023-12-13T04:42:56.641Z,95167.28
2023-12-13T04:46:01.529Z,95174.72
2023-12-13T04:49:05.244Z,95175.91
2023-12-13T04:52:08.680Z,95173.69
2023-12-13T04:55:12.295Z,95170.06
2023-12-13T04:58:16.992Z,95169.31
2023-12-13T05:01:22.678Z,95174.34
2023-12-13T05:04:27.901Z,95167.81
2023-12-13T05:07:32.013Z,95175.53
2023-12-13T05:10:36.592Z,95169.38
2023-12-13T05:13:41.093Z,95157.56
2023-12-13T05:16:45.435Z,95156.22
2023-12-13T05:19:49.100Z,95152.78
2023-12-13T05:22:54.361Z,95155.09
2023-12-13T05:25:58.456Z,95163.06
2023-12-13T05:29:02.057Z,95161.06
2023-12-13T05:32:05.807Z,95154.72
2023-12-13T05:35:11.577Z,95155.41
2023-12-13T05:38:15.638Z,95160.16
2023-12-13T05:41:21.976Z,95160.38
2023-12-13T05:44:25.542Z,95155.63
2023-12-13T05:47:30.812Z,95156.03
2023-12-13T05:50:34.478Z,95162.94
2023-12-13T05:53:38.034Z,95163.41
2023-12-13T05:56:41.711Z,95169.94
2023-12-13T05:59:46.501Z,95168.66
2023-12-13T06:02:55.764Z,95161.53
2023-12-13T06:06:00.516Z,95179.16
2023-12-13T06:09:05.052Z,95174.16
2023-12-13T06:12:10.511Z,95170.88
2023-12-13T06:15:15.753Z,95169.88
2023-12-13T06:18:19.673Z,95174.31
2023-12-13T06:21:23.259Z,95170.53
2023-12-13T06:24:27.478Z,95177.19
2023-12-13T06:27:33.089Z,95180.44
2023-12-13T06:30:37.272Z,95177.50
2023-12-13T06:33:44.915Z,95169.63
2023-12-13T06:36:48.680Z,95172.91
2023-12-13T06:39:53.052Z,95183.44
2023-12-13T06:42:57.209Z,95184.56
2023-12-13T06:46:02.159Z,95193.69
2023-12-13T06:49:06.917Z,95195.50
2023-12-13T06:52:10.459Z,95208.50
2023-12-13T06:55:15.138Z,95204.25
2023-12-13T06:58:20.366Z,95194.19
2023-12-13T07:01:25.037Z,95192.09
2023-12-13T07:04:29.193Z,95201.53
2023-12-13T07:07:33.090Z,95197.28
2023-12-13T07:10:36.748Z,95204.44
2023-12-13T07:13:40.721Z,95204.81
2023-12-13T07:16:47.659Z,95214.91
2023-12-13T07:19:52.194Z,95211.69
2023-12-13T07:22:55.939Z,95216.03
2023-12-13T07:26:00.372Z,95223.66
2023-12-13T07:29:04.889Z,95220.03
2023-12-13T07:32:08.400Z,95217.22
2023-12-13T07:35:12.839Z,95220.44
2023-12-13T07:38:16.847Z,95235.66
2023-12-13T07:41:21.451Z,95229.47
2023-12-13T07:44:25.040Z,95230.56
2023-12-13T07:47:28.665Z,95236.66
2023-12-13T07:50:32.850Z,95233.03
2023-12-13T07:53:36.476Z,95242.06
2023-12-13T07:56:40.114Z,95232.94
2023-12-13T07:59:44.687Z,95243.72
2023-12-13T08:02:48.646Z,95238.31
2023-12-13T08:05:52.511Z,95241.19
2023-12-13T08:08:56.035Z,95241.50
2023-12-13T08:12:00.274Z,95232.03
2023-12-13T08:15:07.126Z,95234.94
2023-12-13T08:18:11.206Z,95238.59
2023-12-13T08:21:14.857Z,95235.69
2023-12-13T08:24:18.505Z,95238.91
2023-12-13T08:27:22.179Z,95240.28
2023-12-13T08:30:25.916Z,95241.72
2023-12-13T08:33:29.688Z,95246.75
2023-12-13T08:36:33.404Z,95262.59
2023-12-13T08:39:36.967Z,95268.59
2023-12-13T08:42:45.369Z,95259.22
2023-12-13T08:45:49.582Z,95279.47
2023-12-13T08:48:53.500Z,95261.78
2023-12-13T08:51:57.198Z,95254.94
2023-12-13T08:55:00.787Z,95267.53
2023-12-13T08:58:04.319Z,95261.31
2023-12-13T09:01:08.360Z,95276.16
2023-12-13T09:04:12.271Z,95279.03
2023-12-13T09:07:16.368Z,95290.56
2023-12-13T09:10:19.857Z,95290.56
2023-12-13T09:13:23.618Z,95288.06
2023-12-13T09:16:27.398Z,95281.88
2023-12-13T09:19:30.985Z,95290.13
2023-12-13T09:22:34.700Z,95296.19
2023-12-13T09:25:38.353Z,95300.13
2023-12-13T09:28:42.652Z,95304.81
2023-12-13T09:31:47.381Z,95305.44
2023-12-13T09:34:51.067Z,95307.28
2023-12-13T09:37:54.821Z,95310.16
2023-12-13T09:40:58.764Z,95310.88
2023-12-13T09:44:02.260Z,95305.06
2023-12-13T09:47:06.182Z,95302.19
2023-12-13T09:50:13.145Z,95306.13
2023-12-13T09:53:18.121Z,95305.31
2023-12-13T09:56:23.133Z,95303.47
2023-12-13T09:59:27.087Z,95315.28
2023-12-13T10:02:30.880Z,95326.09
2023-12-13T10:05:35.828Z,95332.16
2023-12-13T10:08:39.311Z,95330.66
2023-12-13T10:11:43.511Z,95337.84
2023-12-13T10:14:46.999Z,95341.16
2023-12-13T10:17:50.845Z,95344.00
2023-12-13T10:20:54.393Z,95355.50
2023-12-13T10:23:58.034Z,95353.97
2023-12-13T10:27:02.043Z,95358.63
2023-12-13T10:30:06.584Z,95356.72
2023-12-13T10:33:10.218Z,95355.16
2023-12-13T10:36:14.254Z,95363.75
2023-12-13T10:39:24.645Z,95362.66
2023-12-13T10:42:28.855Z,95367.28
2023-12-13T10:45:32.935Z,95360.78
2023-12-13T10:48:41.705Z,95374.47
2023-12-13T10:51:48.221Z,95368.81
2023-12-13T10:54:54.210Z,95356.75
2023-12-13T10:57:59.638Z,95366.81
2023-12-13T11:01:04.008Z,95371.78
2023-12-13T11:04:18.630Z,95393.88
2023-12-13T11:07:23.322Z,95405.84
2023-12-13T11:10:27.155Z,95399.19
2023-12-13T11:13:31.248Z,95407.84
2023-12-13T11:16:41.728Z,95416.41
2023-12-13T11:19:46.268Z,95425.66
2023-12-13T11:22:51.053Z,95425.59
2023-12-13T11:25:57.247Z,95438.50
2023-12-13T11:29:02.054Z,95438.84
2023-12-13T11:32:07.177Z,95437.31
2023-12-13T11:35:19.246Z,95431.53
2023-12-13T11:38:23.192Z,95420.19
2023-12-13T11:41:29.505Z,95426.28
2023-12-13T11:44:35.120Z,95426.88
2023-12-13T11:47:40.073Z,95434.25
2023-12-13T11:50:43.711Z,95434.25
2023-12-13T11:53:47.200Z,95439.81
2023-12-13T11:56:51.126Z,95450.38
2023-12-13T11:59:54.800Z,95443.19
2023-12-13T12:02:58.384Z,95440.66
2023-12-13T12:06:02.071Z,95450.41
2023-12-13T12:09:06.433Z,95451.69
2023-12-13T12:12:12.851Z,95450.28
2023-12-13T12:15:18.085Z,95455.31
2023-12-13T12:18:21.817Z,95460.78
2023-12-13T12:21:25.813Z,95463.31
2023-12-13T12:24:30.794Z,95465.16
2023-12-13T12:27:35.081Z,95483.34
2023-12-13T12:30:41.745Z,95479.59
2023-12-13T12:33:45.526Z,95476.97
2023-12-13T12:36:49.348Z,95482.00
2023-12-13T12:39:53.015Z,95485.16
2023-12-13T12:42:56.589Z,95483.78
2023-12-13T12:46:00.064Z,95481.53
2023-12-13T12:49:03.647Z,95489.56
2023-12-13T12:52:08.176Z,95487.66
2023-12-13T12:55:11.861Z,95496.06
2023-12-13T12:58:15.481Z,95491.03
2023-12-13T13:01:19.196Z,95486.16
2023-12-13T13:04:23.263Z,95488.63
2023-12-13T13:07:27.377Z,95490.53
2023-12-13T13:10:31.621Z,95495.97
2023-12-13T13:13:35.162Z,95501.41
2023-12-13T13:16:39.452Z,95510.81
2023-12-13T13:19:43.346Z,95511.28
2023-12-13T13:22:47.696Z,95518.75
2023-12-13T13:25:51.318Z,95524.78
2023-12-13T13:28:55.952Z,95521.41
2023-12-13T13:31:59.714Z,95530.91
2023-12-13T13:35:03.626Z,95529.13
2023-12-13T13:38:07.275Z,95528.59
2023-12-13T13:41:10.928Z,95538.00
2023-12-13T13:44:14.567Z,95537.34
2023-12-13T13:47:18.285Z,95545.22
2023-12-13T13:50:21.930Z,95550.31
2023-12-13T13:53:27.427Z,95550.81
2023-12-13T13:56:35.877Z,95558.78
2023-12-13T13:59:42.486Z,95562.44
2023-12-13T14:02:47.713Z,95564.63
2023-12-13T14:05:51.268Z,95556.22
2023-12-13T14:08:55.734Z,95565.34
2023-12-13T14:11:59.324Z,95551.88
2023-12-13T14:15:02.901Z,95564.53
2023-12-13T14:18:09.464Z,95573.84
2023-12-13T14:21:13.301Z,95570.16
2023-12-13T14:24:16.878Z,95589.78
2023-12-13T14:27:21.085Z,95579.25
2023-12-13T14:30:25.105Z,95582.00
2023-12-13T14:33:30.926Z,95579.84
2023-12-13T14:36:34.594Z,95577.09
2023-12-13T14:39:38.515Z,95582.25
2023-12-13T14:42:41.976Z,95588.97
2023-12-13T14:45:45.754Z,95585.84
2023-12-13T14:48:50.644Z,95590.53
2023-12-13T14:51:57.459Z,95586.31
2023-12-13T14:55:01.191Z,95590.66
2023-12-13T14:58:04.659Z,95586.59
2023-12-13T15:01:08.657Z,95585.34
2023-12-13T15:04:12.253Z,95591.69
2023-12-13T15:07:17.088Z,95604.06
2023-12-13T15:10:20.974Z,95613.63
2023-12-13T15:13:28.534Z,95615.94
2023-12-13T15:16:32.615Z,95614.78
2023-12-13T15:19:36.149Z,95623.69
2023-12-13T15:22:39.796Z,95629.97
2023-12-13T15:25:43.632Z,95632.09
2023-12-13T15:28:47.690Z,95635.75
2023-12-13T15:31:51.411Z,95640.00
2023-12-13T15:34:54.858Z,95647.47
2023-12-13T15:37:58.566Z,95643.41
2023-12-13T15:41:02.371Z,95646.72
2023-12-13T15:44:08.653Z,95653.03
2023-12-13T15:47:12.269Z,95650.53
2023-12-13T15:50:16.279Z,95657.09
2023-12-13T15:53:20.828Z,95637.53
2023-12-13T15:56:24.400Z,95650.09
2023-12-13T15:59:27.973Z,95654.06
2023-12-13T16:02:31.740Z,95669.78
2023-12-13T16:05:35.266Z,95656.00
2023-12-13T16:08:38.956Z,95661.31
2023-12-13T16:11:43.564Z,95666.03
2023-12-13T16:14:47.680Z,95663.19
2023-12-13T16:17:51.732Z,95669.13
2023-12-13T16:20:55.384Z,95677.41
2023-12-13T16:23:58.903Z,95670.50
2023-12-13T16:27:02.584Z,95675.84
2023-12-13T16:30:06.762Z,95678.59
2023-12-13T16:33:13.008Z,95687.38
2023-12-13T16:36:19.504Z,95690.63
2023-12-13T16:39:22.947Z,95686.75
2023-12-13T16:42:27.277Z,95683.63
2023-12-13T16:45:30.904Z,95681.81
2023-12-13T16:48:34.579Z,95696.06
2023-12-13T16:51:38.184Z,95692.47
2023-12-13T16:54:44.901Z,95702.00
2023-12-13T16:57:49.691Z,95692.88
2023-12-13T17:00:53.420Z,95705.31
2023-12-13T17:03:59.826Z,95702.63
2023-12-13T17:07:03.518Z,95710.28
2023-12-13T17:10:07.536Z,95703.16
2023-12-13T17:13:11.042Z,95710.38
2023-12-13T17:16:14.827Z,95711.84
2023-12-13T17:19:21.554Z,95706.50
2023-12-13T17:22:25.711Z,95714.88
2023-12-13T17:25:29.591Z,95715.81
2023-12-13T17:28:34.632Z,95724.41
2023-12-13T17:31:38.149Z,95718.66
2023-12-13T17:34:41.828Z,95722.00
2023-12-13T17:37:45.607Z,95717.59
2023-12-13T17:40:49.357Z,95718.94
2023-12-13T17:43:57.866Z,95719.34
2023-12-13T17:47:02.678Z,95722.41
2023-12-13T17:50:07.194Z,95723.44
2023-12-13T17:53:11.053Z,95733.91
2023-12-13T17:56:18.570Z,95735.47
2023-12-13T17:59:22.224Z,95739.56
2023-12-13T18:02:27.615Z,95734.22
2023-12-13T18:05:31.138Z,95744.34
2023-12-13T18:08:35.168Z,95740.97
2023-12-13T18:11:38.745Z,95752.56
2023-12-13T18:14:42.447Z,95744.44
2023-12-13T18:17:46.247Z,95745.16
2023-12-13T18:20:49.875Z,95757.50
2023-12-13T18:23:53.658Z,95753.09
2023-12-13T18:26:57.317Z,95757.16
2023-12-13T18:30:00.997Z,95765.09
2023-12-13T18:33:04.859Z,95775.22
2023-12-13T18:36:08.585Z,95776.78
2023-12-13T18:39:12.266Z,95769.19
2023-12-13T18:42:15.802Z,95758.50
2023-12-13T18:45:21.384Z,95759.34
2023-12-13T18:48:25.039Z,95753.84
2023-12-13T18:51:28.727Z,95761.03
2023-12-13T18:54:32.952Z,95761.19
2023-12-13T18:57:36.437Z,95759.50
2023-12-13T19:00:39.792Z,95768.44
2023-12-13T19:03:43.547Z,95767.66
2023-12-13T19:06:49.316Z,95767.75
2023-12-13T19:09:53.809Z,95777.91
2023-12-13T19:12:57.492Z,95777.69
2023-12-13T19:16:01.029Z,95775.47
2023-12-13T19:19:04.684Z,95784.94
2023-12-13T19:22:10.102Z,95783.91
2023-12-13T19:25:13.751Z,95782.69
2023-12-13T19:28:17.402Z,95777.78
2023-12-13T19:31:21.337Z,95773.88
2023-12-13T19:34:31.321Z,95779.50
2023-12-13T19:37:41.351Z,95783.06
2023-12-13T19:40:45.250Z,95768.81
2023-12-13T19:43:48.953Z,95783.53
2023-12-13T19:46:52.469Z,95772.19
2023-12-13T19:49:56.047Z,95772.78
2023-12-13T19:52:59.630Z,95775.84
2023-12-13T19:56:04.224Z,95775.13
2023-12-13T19:59:09.133Z,95772.47
2023-12-13T20:02:13.316Z,95770.59
2023-12-13T20:05:18.188Z,95771.50
2023-12-13T20:08:21.884Z,95770.66
2023-12-13T20:11:25.375Z,95767.22
2023-12-13T20:14:28.933Z,95768.38
2023-12-13T20:17:32.728Z,95770.06
2023-12-13T20:20:36.356Z,95757.75
2023-12-13T20:23:39.826Z,95762.03
2023-12-13T20:26:43.398Z,95762.72
2023-12-13T20:29:46.907Z,95769.16
2023-12-13T20:32:50.530Z,95760.63
2023-12-13T20:35:54.131Z,95765.69
2023-12-13T20:38:57.720Z,95762.38
2023-12-13T20:42:01.349Z,95773.91
2023-12-13T20:45:06.095Z,95778.13
2023-12-13T20:48:09.768Z,95771.34
2023-12-13T20:51:13.419Z,95778.00
2023-12-13T20:54:17.028Z,95789.31
2023-12-13T20:57:20.477Z,95783.28
2023-12-13T21:00:24.127Z,95793.63
2023-12-13T21:03:27.778Z,95784.50
2023-12-13T21:06:31.455Z,95788.56
2023-12-13T21:09:35.007Z,95780.97
2023-12-13T21:12:38.711Z,95777.94
2023-12-13T21:15:42.485Z,95777.31
2023-12-13T21:18:46.052Z,95769.69
2023-12-13T21:21:49.646Z,95774.19
2023-12-13T21:24:53.230Z,95770.66
2023-12-13T21:27:56.786Z,95763.34
2023-12-13T21:31:00.773Z,95773.78
2023-12-13T21:34:04.522Z,95756.28
2023-12-13T21:37:09.118Z,95764.69
2023-12-13T21:40:13.071Z,95761.88
2023-12-13T21:43:16.512Z,95762.38
2023-12-13T21:46:26.454Z,95760.19
2023-12-13T21:49:30.089Z,95764.50
2023-12-13T21:52:37.656Z,95767.19
2023-12-13T21:55:41.424Z,95765.72
2023-12-13T21:58:45.981Z,95763.97
2023-12-13T22:01:51.942Z,95766.09
2023-12-13T22:04:55.973Z,95762.31
2023-12-13T22:07:59.600Z,95769.94
2023-12-13T22:11:03.629Z,95764.75
2023-12-13T22:14:08.194Z,95773.81
2023-12-13T22:17:11.894Z,95773.34
2023-12-13T22:20:18.448Z,95776.50
2023-12-13T22:23:29.534Z,95786.25
2023-12-13T22:26:37.278Z,95782.28
2023-12-13T22:29:41.020Z,95775.31
2023-12-13T22:32:44.689Z,95787.09
2023-12-13T22:35:48.494Z,95780.50
2023-12-13T22:38:51.987Z,95789.38
2023-12-13T22:41:55.971Z,95789.09
2023-12-13T22:44:59.651Z,95785.09
2023-12-13T22:48:03.412Z,95782.72
2023-12-13T22:51:07.948Z,95789.78
2023-12-13T22:54:11.582Z,95797.41
2023-12-13T22:57:15.214Z,95804.75
2023-12-13T23:00:29.587Z,95797.13
2023-12-13T23:03:33.618Z,95807.31
2023-12-13T23:06:37.172Z,95807.13
2023-12-13T23:09:40.851Z,95811.84
2023-12-13T23:12:44.848Z,95805.31
2023-12-13T23:15:49.524Z,95806.63
2023-12-13T23:18:53.644Z,95816.00
2023-12-13T23:21:57.273Z,95806.56
2023-12-13T23:25:01.707Z,95811.69
2023-12-13T23:28:05.489Z,95817.13
2023-12-13T23:31:09.108Z,95833.50
2023-12-13T23:34:12.795Z,95836.13
2023-12-13T23:37:16.452Z,95838.50
2023-12-13T23:40:20.205Z,95835.19
2023-12-13T23:43:23.825Z,95852.44
2023-12-13T23:46:27.495Z,95851.88
2023-12-13T23:49:31.032Z,95854.44
2023-12-13T23:52:34.902Z,95866.56
2023-12-13T23:55:38.853Z,95871.69
2023-12-13T23:58:42.543Z,95867.63
